Time;durP1;ratioP1;P1;durP2;ratioP2;P2;SDS_P1;SDS_P2;PMS_P1;PMS_P2;Temp;Humidity;BMP_temperature;BMP_pressure;BME280_temperature;BME280_humidity;BME280_pressure;Samples;Min_cycle;Max_cycle;Signal;HPM_P1;HPM_P2
2024/02/28 00:01:52;;;;;;;82.78;37.83;;;;;;;;;;4983899;28;20438;-81
2024/02/28 00:04:19;;;;;;;85.80;35.20;;;;;;;;;;4961460;28;20206;-80
2024/02/28 00:06:48;;;;;;;94.45;37.72;;;;;;;;;;4977403;28;20227;-80
2024/02/28 00:09:14;;;;;;;78.80;35.78;;;;;;;;;;4986721;28;20700;-81
2024/02/28 00:11:47;;;;;;;83.17;36.40;;;;;;;;;;4983016;28;20183;-81
2024/02/28 00:14:13;;;;;;;80.53;34.70;;;;;;;;;;5004001;28;20434;-81
2024/02/28 00:16:43;;;;;;;81.43;38.67;;;;;;;;;;4987145;28;20236;-80
2024/02/28 00:19:11;;;;;;;78.60;36.38;;;;;;;;;;5007188;28;20188;-81
2024/02/28 00:21:37;;;;;;;59.78;30.85;;;;;;;;;;5008707;28;20236;-81
2024/02/28 00:24:03;;;;;;;71.65;34.97;;;;;;;;;;5004711;28;20966;-80
2024/02/28 00:26:29;;;;;;;80.35;37.40;;;;;;;;;;4985807;28;20192;-80
2024/02/28 00:28:55;;;;;;;78.85;35.75;;;;;;;;;;5004463;28;20195;-79
2024/02/28 00:31:24;;;;;;;82.35;38.33;;;;;;;;;;4985461;28;20180;-81
2024/02/28 00:33:50;;;;;;;73.97;32.45;;;;;;;;;;4973573;28;20674;-82
2024/02/28 00:36:16;;;;;;;79.43;32.45;;;;;;;;;;4987593;28;20224;-82
2024/02/28 00:38:42;;;;;;;68.10;30.35;;;;;;;;;;5004110;28;20621;-81
2024/02/28 00:41:08;;;;;;;71.32;33.80;;;;;;;;;;4999740;28;20178;-81
2024/02/28 00:43:34;;;;;;;75.80;35.75;;;;;;;;;;5003999;28;20327;-81
2024/02/28 00:46:00;;;;;;;74.25;32.45;;;;;;;;;;5004454;28;20635;-81
2024/02/28 00:48:26;;;;;;;71.97;33.20;;;;;;;;;;5003991;28;20191;-82
2024/02/28 00:50:52;;;;;;;74.18;32.80;;;;;;;;;;5007648;28;20457;-81
2024/02/28 00:53:19;;;;;;;67.15;33.22;;;;;;;;;;5007784;28;20278;-82
2024/02/28 00:55:45;;;;;;;66.47;32.35;;;;;;;;;;4985127;28;20211;-82
2024/02/28 00:58:11;;;;;;;74.32;34.33;;;;;;;;;;5006010;28;20242;-81
2024/02/28 01:00:37;;;;;;;70.95;34.50;;;;;;;;;;4985124;28;20242;-81
2024/02/28 01:03:08;;;;;;;74.70;35.00;;;;;;;;;;5004337;28;20178;-81
2024/02/28 01:05:35;;;;;;;80.90;33.03;;;;;;;;;;5005529;28;20480;-81
2024/02/28 01:08:01;;;;;;;65.60;32.87;;;;;;;;;;4971593;28;1087077;-80
2024/02/28 01:10:27;;;;;;;76.72;35.70;;;;;;;;;;5005357;28;20183;-81
2024/02/28 01:12:53;;;;;;;76.38;34.30;;;;;;;;;;5003009;28;20647;-81
2024/02/28 01:15:19;;;;;;;73.77;33.13;;;;;;;;;;5006429;28;20266;-81
2024/02/28 01:17:45;;;;;;;84.30;38.70;;;;;;;;;;5007489;28;20813;-81
2024/02/28 01:20:11;;;;;;;90.82;35.10;;;;;;;;;;4987340;28;20232;-79
2024/02/28 01:22:37;;;;;;;79.13;35.95;;;;;;;;;;5005497;28;20239;-80
2024/02/28 01:25:03;;;;;;;71.67;35.07;;;;;;;;;;5009775;28;20573;-80
2024/02/28 01:27:29;;;;;;;74.80;36.00;;;;;;;;;;4982826;28;20433;-80
2024/02/28 01:29:55;;;;;;;76.53;34.35;;;;;;;;;;5004781;28;20244;-80
2024/02/28 01:32:21;;;;;;;80.53;34.17;;;;;;;;;;5006730;28;20587;-81
2024/02/28 01:34:47;;;;;;;73.32;35.05;;;;;;;;;;5001271;28;20431;-80
2024/02/28 01:37:13;;;;;;;90.35;36.83;;;;;;;;;;5003873;28;20272;-80
2024/02/28 01:39:39;;;;;;;79.38;36.40;;;;;;;;;;5008981;28;20253;-81
2024/02/28 01:42:05;;;;;;;83.10;35.42;;;;;;;;;;4968735;28;20203;-81
2024/02/28 01:44:31;;;;;;;76.07;33.75;;;;;;;;;;5004602;28;20188;-80
2024/02/28 01:46:58;;;;;;;79.88;35.30;;;;;;;;;;5002806;28;20187;-80
2024/02/28 01:49:24;;;;;;;83.53;35.78;;;;;;;;;;5010939;28;20182;-81
2024/02/28 01:51:51;;;;;;;81.88;35.13;;;;;;;;;;5009776;28;20171;-81
2024/02/28 01:54:17;;;;;;;83.28;37.13;;;;;;;;;;5005279;28;20195;-80
2024/02/28 01:56:43;;;;;;;80.22;36.20;;;;;;;;;;5002982;28;20213;-81
2024/02/28 01:59:11;;;;;;;79.63;34.47;;;;;;;;;;5008320;28;20182;-80
2024/02/28 02:01:37;;;;;;;91.95;36.80;;;;;;;;;;4989161;28;20175;-81
2024/02/28 02:04:04;;;;;;;87.45;36.13;;;;;;;;;;5005593;28;20186;-80
2024/02/28 02:06:30;;;;;;;87.65;37.28;;;;;;;;;;5008228;28;21234;-80
2024/02/28 02:08:56;;;;;;;87.63;36.70;;;;;;;;;;5007738;28;20191;-80
2024/02/28 02:11:22;;;;;;;86.05;39.65;;;;;;;;;;4997508;28;20184;-80
2024/02/28 02:13:52;;;;;;;98.68;41.92;;;;;;;;;;5010047;28;20178;-80
2024/02/28 02:16:27;;;;;;;89.57;39.00;;;;;;;;;;4982574;28;20731;-80
2024/02/28 02:18:54;;;;;;;92.57;40.10;;;;;;;;;;5001556;28;20262;-80
2024/02/28 02:21:20;;;;;;;78.68;40.25;;;;;;;;;;5005248;28;20179;-80
2024/02/28 02:23:46;;;;;;;104.72;40.20;;;;;;;;;;5005502;28;20182;-81
2024/02/28 02:26:12;;;;;;;93.80;38.85;;;;;;;;;;5002818;28;20546;-81
2024/02/28 02:28:38;;;;;;;116.93;41.92;;;;;;;;;;5003920;28;20186;-80
2024/02/28 02:31:04;;;;;;;89.72;39.70;;;;;;;;;;4987706;28;20183;-79
2024/02/28 02:33:30;;;;;;;89.88;40.53;;;;;;;;;;5007607;28;20190;-80
2024/02/28 02:35:56;;;;;;;80.23;37.80;;;;;;;;;;5000780;28;20222;-80
2024/02/28 02:38:22;;;;;;;99.38;39.90;;;;;;;;;;5003541;28;21009;-80
2024/02/28 02:40:49;;;;;;;88.15;37.60;;;;;;;;;;5006396;28;20195;-81
2024/02/28 02:43:15;;;;;;;88.95;38.67;;;;;;;;;;5004489;28;21364;-80
2024/02/28 02:45:41;;;;;;;81.57;37.13;;;;;;;;;;4989787;28;20281;-80
2024/02/28 02:48:07;;;;;;;88.03;39.20;;;;;;;;;;5005845;28;20179;-80
2024/02/28 02:50:33;;;;;;;82.90;38.60;;;;;;;;;;4999227;28;20183;-80
2024/02/28 02:52:59;;;;;;;90.87;38.93;;;;;;;;;;5003991;28;20195;-80
2024/02/28 02:55:25;;;;;;;91.30;38.80;;;;;;;;;;4987206;28;20570;-80
2024/02/28 02:57:51;;;;;;;92.10;38.73;;;;;;;;;;5007518;28;20421;-80
2024/02/28 03:00:17;;;;;;;80.95;38.03;;;;;;;;;;5003739;28;20756;-81
2024/02/28 03:02:43;;;;;;;93.57;40.15;;;;;;;;;;4983573;28;20281;-80
2024/02/28 03:05:09;;;;;;;94.37;39.57;;;;;;;;;;5007847;28;20177;-80
2024/02/28 03:07:35;;;;;;;89.25;36.85;;;;;;;;;;5003178;28;20553;-81
2024/02/28 03:10:02;;;;;;;88.72;36.85;;;;;;;;;;4985517;28;20175;-80
2024/02/28 03:12:28;;;;;;;81.97;36.05;;;;;;;;;;5008114;28;20537;-79
2024/02/28 03:14:54;;;;;;;92.43;38.95;;;;;;;;;;5003482;28;20210;-80
2024/02/28 03:17:21;;;;;;;96.35;39.97;;;;;;;;;;4984523;28;20348;-80
2024/02/28 03:19:47;;;;;;;100.15;39.20;;;;;;;;;;5003320;28;20181;-81
2024/02/28 03:22:13;;;;;;;118.25;43.72;;;;;;;;;;5001708;28;20181;-80
2024/02/28 03:24:39;;;;;;;109.47;42.10;;;;;;;;;;4989965;28;20646;-81
2024/02/28 03:27:05;;;;;;;167.68;41.20;;;;;;;;;;5003423;28;20182;-80
2024/02/28 03:29:31;;;;;;;439.10;64.18;;;;;;;;;;5003224;28;20534;-81
2024/02/28 03:31:58;;;;;;;336.38;56.38;;;;;;;;;;5006056;28;20179;-81
2024/02/28 03:34:25;;;;;;;337.33;56.88;;;;;;;;;;5007918;28;20182;-81
2024/02/28 03:36:51;;;;;;;306.13;50.17;;;;;;;;;;4986844;28;20211;-81
2024/02/28 03:39:17;;;;;;;417.17;62.75;;;;;;;;;;5006902;28;20200;-80
2024/02/28 03:41:43;;;;;;;262.45;51.10;;;;;;;;;;5009406;28;20180;-81
2024/02/28 03:44:09;;;;;;;347.60;61.70;;;;;;;;;;4984391;28;20257;-80
2024/02/28 03:46:35;;;;;;;212.20;50.20;;;;;;;;;;5001708;28;20843;-81
2024/02/28 03:49:01;;;;;;;228.70;48.73;;;;;;;;;;5002107;28;20186;-81
2024/02/28 03:51:27;;;;;;;172.03;44.70;;;;;;;;;;4985761;28;20422;-81
2024/02/28 03:53:53;;;;;;;165.80;44.87;;;;;;;;;;5002543;28;20759;-79
2024/02/28 03:56:26;;;;;;;269.50;50.93;;;;;;;;;;4981377;28;20505;-81
2024/02/28 03:58:52;;;;;;;260.00;49.97;;;;;;;;;;5000957;28;20434;-81
2024/02/28 04:01:18;;;;;;;482.98;72.15;;;;;;;;;;4974909;28;20181;-81
2024/02/28 04:03:44;;;;;;;326.17;55.15;;;;;;;;;;5003116;28;20689;-80
2024/02/28 04:06:13;;;;;;;243.07;49.25;;;;;;;;;;4997256;28;20231;-81
2024/02/28 04:08:41;;;;;;;196.63;44.80;;;;;;;;;;5002298;28;20723;-81
2024/02/28 04:11:07;;;;;;;280.65;53.90;;;;;;;;;;5004502;28;20215;-81
2024/02/28 04:13:33;;;;;;;182.13;44.40;;;;;;;;;;5008129;28;20187;-80
2024/02/28 04:16:00;;;;;;;304.40;52.13;;;;;;;;;;4993107;28;20450;-80
2024/02/28 04:18:26;;;;;;;276.13;54.88;;;;;;;;;;5005743;28;20454;-81
2024/02/28 04:20:52;;;;;;;295.98;53.67;;;;;;;;;;4984480;28;20176;-80
2024/02/28 04:23:18;;;;;;;376.70;58.43;;;;;;;;;;5003179;28;20199;-81
2024/02/28 04:25:44;;;;;;;442.17;62.83;;;;;;;;;;5001082;28;20499;-80
2024/02/28 04:28:10;;;;;;;403.83;59.50;;;;;;;;;;4998930;28;20516;-81
2024/02/28 04:30:36;;;;;;;404.55;58.53;;;;;;;;;;5005469;28;20404;-80
2024/02/28 04:33:02;;;;;;;401.23;57.50;;;;;;;;;;5005808;28;20211;-81
2024/02/28 04:35:28;;;;;;;366.15;54.90;;;;;;;;;;4985858;28;20430;-80
2024/02/28 04:37:54;;;;;;;577.10;72.30;;;;;;;;;;5002197;28;20566;-80
2024/02/28 04:40:20;;;;;;;461.37;63.23;;;;;;;;;;4997613;28;20347;-80
2024/02/28 04:42:46;;;;;;;409.50;60.90;;;;;;;;;;5000839;28;20935;-79
2024/02/28 04:45:12;;;;;;;376.53;53.43;;;;;;;;;;5009324;28;20916;-80
2024/02/28 04:47:38;;;;;;;446.52;63.10;;;;;;;;;;4989947;28;20435;-80
2024/02/28 04:50:05;;;;;;;246.40;46.00;;;;;;;;;;5013560;28;20173;-80
2024/02/28 04:52:34;;;;;;;281.20;47.47;;;;;;;;;;4999893;28;20185;-79
2024/02/28 04:55:00;;;;;;;421.15;56.78;;;;;;;;;;5008401;28;20184;-79
2024/02/28 04:57:26;;;;;;;265.48;47.55;;;;;;;;;;5011984;28;20224;-79
2024/02/28 04:59:52;;;;;;;243.82;43.95;;;;;;;;;;4972338;28;20181;-80
2024/02/28 05:02:21;;;;;;;320.67;49.42;;;;;;;;;;5004820;28;20200;-80
2024/02/28 05:04:47;;;;;;;441.67;61.05;;;;;;;;;;5001692;28;20203;-80
2024/02/28 05:07:13;;;;;;;466.80;64.32;;;;;;;;;;5003545;28;20235;-80
2024/02/28 05:09:39;;;;;;;216.50;44.63;;;;;;;;;;5007424;28;20187;-80
2024/02/28 05:12:05;;;;;;;468.90;61.70;;;;;;;;;;5008709;28;20396;-79
2024/02/28 05:14:31;;;;;;;452.88;63.95;;;;;;;;;;5007230;28;20211;-80
2024/02/28 05:16:57;;;;;;;500.27;69.63;;;;;;;;;;4991137;28;20218;-80
2024/02/28 05:19:23;;;;;;;475.70;63.90;;;;;;;;;;5008622;28;20825;-80
2024/02/28 05:21:49;;;;;;;247.98;46.25;;;;;;;;;;4987443;28;20241;-81
2024/02/28 05:24:15;;;;;;;408.92;59.40;;;;;;;;;;5010091;28;20273;-80
2024/02/28 05:26:41;;;;;;;454.38;62.65;;;;;;;;;;4988923;28;20222;-80
2024/02/28 05:29:08;;;;;;;303.10;52.35;;;;;;;;;;4998591;28;20180;-80
2024/02/28 05:31:34;;;;;;;131.70;40.55;;;;;;;;;;5003285;28;20248;-80
2024/02/28 05:34:01;;;;;;;143.75;43.78;;;;;;;;;;5006231;28;20649;-81
2024/02/28 05:36:27;;;;;;;136.63;39.53;;;;;;;;;;5008531;28;20267;-80
2024/02/28 05:38:54;;;;;;;145.20;44.40;;;;;;;;;;5006941;28;20193;-80
2024/02/28 05:41:20;;;;;;;160.05;45.38;;;;;;;;;;5005881;28;20184;-80
2024/02/28 05:43:47;;;;;;;144.27;45.10;;;;;;;;;;5005831;28;20241;-81
2024/02/28 05:46:13;;;;;;;150.10;42.30;;;;;;;;;;4989981;28;20187;-80
2024/02/28 05:48:39;;;;;;;149.63;43.55;;;;;;;;;;4989236;28;20253;-81
2024/02/28 05:51:05;;;;;;;158.15;42.60;;;;;;;;;;5006079;28;20583;-81
2024/02/28 05:53:35;;;;;;;175.40;48.93;;;;;;;;;;4994023;28;20298;-80
2024/02/28 05:56:05;;;;;;;184.55;50.78;;;;;;;;;;4988342;28;20840;-81
2024/02/28 05:58:31;;;;;;;155.10;42.20;;;;;;;;;;4981819;28;20703;-81
2024/02/28 06:00:58;;;;;;;157.40;42.55;;;;;;;;;;5006916;28;20180;-81
2024/02/28 06:03:23;;;;;;;167.07;45.85;;;;;;;;;;4985902;28;20221;-81
2024/02/28 06:05:50;;;;;;;153.87;41.67;;;;;;;;;;4976333;28;20204;-81
2024/02/28 06:08:15;;;;;;;176.05;47.78;;;;;;;;;;4990195;28;20470;-81
2024/02/28 06:10:46;;;;;;;167.47;43.87;;;;;;;;;;5008293;28;20226;-80
2024/02/28 06:13:13;;;;;;;150.45;42.35;;;;;;;;;;4987812;28;20433;-81
2024/02/28 06:15:39;;;;;;;148.52;40.58;;;;;;;;;;4984071;28;20664;-81
2024/02/28 06:18:05;;;;;;;169.20;43.73;;;;;;;;;;5002580;28;20186;-81
2024/02/28 06:20:31;;;;;;;161.20;46.38;;;;;;;;;;5000944;28;20469;-80
2024/02/28 06:22:57;;;;;;;150.82;44.50;;;;;;;;;;4990211;28;20192;-79
2024/02/28 06:25:23;;;;;;;151.80;43.70;;;;;;;;;;4974871;28;20196;-79
2024/02/28 06:27:49;;;;;;;160.35;44.17;;;;;;;;;;4986913;28;20205;-81
2024/02/28 06:30:19;;;;;;;162.98;42.45;;;;;;;;;;4975982;28;20253;-81
2024/02/28 06:32:45;;;;;;;172.70;46.53;;;;;;;;;;5003639;28;20183;-81
2024/02/28 06:35:11;;;;;;;177.63;48.45;;;;;;;;;;5004179;28;20182;-81
2024/02/28 06:37:37;;;;;;;162.77;45.65;;;;;;;;;;5010122;28;20233;-82
2024/02/28 06:40:04;;;;;;;160.73;42.92;;;;;;;;;;5004233;28;20186;-80
2024/02/28 06:42:30;;;;;;;176.40;45.38;;;;;;;;;;5004752;28;20588;-81
2024/02/28 06:44:56;;;;;;;163.80;47.20;;;;;;;;;;5005657;28;20671;-81
2024/02/28 06:47:22;;;;;;;150.18;43.00;;;;;;;;;;5004498;28;20202;-81
2024/02/28 06:49:49;;;;;;;169.03;46.53;;;;;;;;;;4986062;28;20194;-81
2024/02/28 06:52:15;;;;;;;184.48;44.78;;;;;;;;;;5004140;28;20422;-81
2024/02/28 06:54:41;;;;;;;153.80;43.90;;;;;;;;;;4989676;28;20186;-80
2024/02/28 06:57:07;;;;;;;148.87;42.13;;;;;;;;;;5003478;28;20524;-80
2024/02/28 06:59:33;;;;;;;146.07;44.25;;;;;;;;;;5002573;28;20913;-81
2024/02/28 07:01:59;;;;;;;149.10;40.40;;;;;;;;;;5001261;28;20179;-81
2024/02/28 07:04:25;;;;;;;156.57;46.17;;;;;;;;;;4986255;28;20548;-81
2024/02/28 07:06:51;;;;;;;135.87;42.03;;;;;;;;;;5005325;28;20473;-80
2024/02/28 07:09:17;;;;;;;147.65;44.42;;;;;;;;;;4998826;28;20444;-81
2024/02/28 07:11:43;;;;;;;145.07;42.25;;;;;;;;;;4992435;28;20186;-81
2024/02/28 07:14:09;;;;;;;148.32;40.72;;;;;;;;;;4985507;28;20186;-81
2024/02/28 07:16:35;;;;;;;140.52;44.97;;;;;;;;;;5002563;28;20590;-81
2024/02/28 07:19:01;;;;;;;142.40;43.13;;;;;;;;;;5000593;28;20193;-81
2024/02/28 07:21:27;;;;;;;138.07;42.53;;;;;;;;;;5005685;28;20180;-81
2024/02/28 07:23:54;;;;;;;138.13;43.75;;;;;;;;;;4988470;28;20185;-81
2024/02/28 07:26:20;;;;;;;144.00;43.03;;;;;;;;;;4998080;28;20194;-81
2024/02/28 07:28:49;;;;;;;152.48;41.63;;;;;;;;;;5003369;28;20183;-80
2024/02/28 07:31:19;;;;;;;153.93;45.28;;;;;;;;;;5002482;28;20322;-81
2024/02/28 07:33:45;;;;;;;143.23;41.05;;;;;;;;;;4989033;28;20197;-81
2024/02/28 07:36:11;;;;;;;182.43;48.22;;;;;;;;;;5003170;28;20332;-80
2024/02/28 07:38:37;;;;;;;163.80;46.72;;;;;;;;;;5003326;28;20222;-81
2024/02/28 07:41:03;;;;;;;153.27;45.42;;;;;;;;;;5005143;28;20225;-81
2024/02/28 07:43:32;;;;;;;155.73;44.55;;;;;;;;;;4997486;28;20216;-80
2024/02/28 07:45:58;;;;;;;184.15;47.80;;;;;;;;;;5005584;28;20197;-80
2024/02/28 07:48:24;;;;;;;148.73;45.30;;;;;;;;;;5006199;28;20182;-81
2024/02/28 07:50:50;;;;;;;154.48;46.22;;;;;;;;;;5006636;28;20193;-80
2024/02/28 07:53:17;;;;;;;153.57;46.10;;;;;;;;;;4982260;28;20269;-81
2024/02/28 07:55:43;;;;;;;163.00;47.92;;;;;;;;;;4994971;28;20775;-80
2024/02/28 07:58:09;;;;;;;179.73;50.88;;;;;;;;;;5000253;28;20588;-80
2024/02/28 08:00:36;;;;;;;168.57;47.10;;;;;;;;;;4999637;28;20193;-80
2024/02/28 08:03:02;;;;;;;169.20;45.67;;;;;;;;;;5002181;28;20429;-87
2024/02/28 08:05:28;;;;;;;172.00;49.38;;;;;;;;;;4998200;28;20237;-88
2024/02/28 08:07:54;;;;;;;166.97;45.80;;;;;;;;;;4995573;28;20308;-80
2024/02/28 08:10:20;;;;;;;184.23;50.50;;;;;;;;;;5006903;28;20434;-82
2024/02/28 08:12:46;;;;;;;156.53;46.50;;;;;;;;;;5001811;28;20189;-81
2024/02/28 08:15:12;;;;;;;168.60;50.10;;;;;;;;;;5000829;28;20432;-82
2024/02/28 08:17:38;;;;;;;169.88;48.92;;;;;;;;;;4994731;28;20496;-81
2024/02/28 08:20:05;;;;;;;178.80;47.10;;;;;;;;;;4996266;28;20188;-82
2024/02/28 08:22:31;;;;;;;158.75;48.28;;;;;;;;;;4999683;28;20461;-82
2024/02/28 08:24:57;;;;;;;156.35;44.72;;;;;;;;;;4999938;28;20207;-81
2024/02/28 08:27:23;;;;;;;144.07;43.58;;;;;;;;;;5003636;28;20233;-81
2024/02/28 08:29:50;;;;;;;148.25;45.00;;;;;;;;;;5000064;28;20191;-81
2024/02/28 08:32:16;;;;;;;135.57;43.08;;;;;;;;;;5006928;28;20191;-81
2024/02/28 08:34:49;;;;;;;152.15;47.83;;;;;;;;;;4998049;28;20516;-81
2024/02/28 08:37:15;;;;;;;162.77;48.60;;;;;;;;;;4998795;28;20257;-81
2024/02/28 08:39:41;;;;;;;149.23;42.60;;;;;;;;;;5000600;28;20265;-82
2024/02/28 08:42:07;;;;;;;143.37;46.53;;;;;;;;;;5001949;28;20191;-82
2024/02/28 08:44:33;;;;;;;155.98;43.33;;;;;;;;;;4999038;28;20836;-82
2024/02/28 08:46:59;;;;;;;145.90;46.97;;;;;;;;;;4999409;28;20187;-81
2024/02/28 08:49:26;;;;;;;142.03;46.90;;;;;;;;;;4999076;28;20767;-81
2024/02/28 08:51:52;;;;;;;142.25;45.47;;;;;;;;;;5002767;28;20418;-81
2024/02/28 08:54:18;;;;;;;128.27;45.20;;;;;;;;;;4978657;28;20206;-81
2024/02/28 08:56:44;;;;;;;127.77;44.50;;;;;;;;;;5007746;28;20226;-82
2024/02/28 08:59:10;;;;;;;136.27;45.60;;;;;;;;;;4999625;28;20498;-82
2024/02/28 09:01:36;;;;;;;126.27;42.13;;;;;;;;;;4998830;28;20434;-81
2024/02/28 09:04:03;;;;;;;153.05;44.72;;;;;;;;;;4998976;28;20782;-81
2024/02/28 09:06:29;;;;;;;120.50;41.45;;;;;;;;;;4998356;28;20218;-81
2024/02/28 09:08:55;;;;;;;123.00;41.87;;;;;;;;;;5003401;28;20175;-81
2024/02/28 09:11:21;;;;;;;116.60;41.05;;;;;;;;;;4998930;28;20430;-80
2024/02/28 09:13:47;;;;;;;112.80;41.88;;;;;;;;;;5001947;28;20171;-82
2024/02/28 09:16:13;;;;;;;108.87;41.00;;;;;;;;;;4994071;28;20698;-81
2024/02/28 09:18:39;;;;;;;101.73;39.03;;;;;;;;;;5009638;28;20542;-81
2024/02/28 09:21:05;;;;;;;103.53;42.00;;;;;;;;;;5001377;28;20417;-82
2024/02/28 09:23:31;;;;;;;91.67;39.27;;;;;;;;;;4998407;28;20460;-82
2024/02/28 09:25:57;;;;;;;93.10;39.85;;;;;;;;;;4992519;28;20438;-81
2024/02/28 09:28:23;;;;;;;96.22;39.83;;;;;;;;;;5000996;28;20170;-82
2024/02/28 09:30:50;;;;;;;91.88;39.55;;;;;;;;;;5000335;28;20183;-82
2024/02/28 09:33:19;;;;;;;83.95;36.65;;;;;;;;;;4997937;28;20175;-82
2024/02/28 09:35:45;;;;;;;76.50;34.13;;;;;;;;;;4997927;28;20189;-82
2024/02/28 09:38:11;;;;;;;77.60;36.83;;;;;;;;;;4998453;28;20183;-82
2024/02/28 09:40:38;;;;;;;67.80;34.90;;;;;;;;;;4997006;28;20696;-80
2024/02/28 09:43:04;;;;;;;71.95;33.92;;;;;;;;;;4999928;28;20637;-81
2024/02/28 09:45:32;;;;;;;62.95;31.70;;;;;;;;;;4997822;28;20231;-82
2024/02/28 09:48:03;;;;;;;69.63;32.60;;;;;;;;;;4997914;28;20174;-80
2024/02/28 09:50:29;;;;;;;55.50;29.40;;;;;;;;;;4995476;28;20270;-81
2024/02/28 09:52:55;;;;;;;59.70;31.67;;;;;;;;;;5007482;28;20183;-82
2024/02/28 09:55:21;;;;;;;52.45;27.60;;;;;;;;;;5000455;28;20173;-81
2024/02/28 09:57:51;;;;;;;56.60;30.05;;;;;;;;;;5002499;28;20192;-82
2024/02/28 10:00:20;;;;;;;54.15;29.02;;;;;;;;;;4981828;28;20656;-81
2024/02/28 10:02:47;;;;;;;48.33;27.15;;;;;;;;;;4997638;28;20649;-81
2024/02/28 10:05:15;;;;;;;45.30;26.45;;;;;;;;;;4998043;28;20167;-82
2024/02/28 10:07:41;;;;;;;50.55;28.58;;;;;;;;;;4998049;28;20230;-81
2024/02/28 10:10:08;;;;;;;48.90;27.13;;;;;;;;;;4998078;28;20172;-81
2024/02/28 10:12:34;;;;;;;49.67;27.48;;;;;;;;;;5002202;28;20530;-82
2024/02/28 10:15:03;;;;;;;43.83;25.38;;;;;;;;;;4996530;28;20593;-82
2024/02/28 10:17:29;;;;;;;39.40;24.67;;;;;;;;;;4976025;28;20621;-82
2024/02/28 10:19:55;;;;;;;42.10;24.67;;;;;;;;;;4998580;28;20176;-81
2024/02/28 10:22:21;;;;;;;47.10;28.00;;;;;;;;;;4997284;28;20454;-81
2024/02/28 10:24:47;;;;;;;45.37;26.33;;;;;;;;;;4997645;28;20501;-81
2024/02/28 10:27:16;;;;;;;42.63;28.70;;;;;;;;;;5001606;28;20410;-82
2024/02/28 10:29:44;;;;;;;39.03;25.27;;;;;;;;;;5003894;28;20536;-81
2024/02/28 10:32:10;;;;;;;35.95;23.27;;;;;;;;;;4997959;28;20538;-81
2024/02/28 10:34:37;;;;;;;38.28;23.10;;;;;;;;;;4979949;28;20313;-81
2024/02/28 10:37:04;;;;;;;41.20;26.10;;;;;;;;;;4985527;28;20291;-81
2024/02/28 10:39:30;;;;;;;38.83;24.20;;;;;;;;;;4996634;28;20497;-81
2024/02/28 10:41:57;;;;;;;41.60;22.33;;;;;;;;;;4998401;28;20421;-81
2024/02/28 10:44:23;;;;;;;42.00;25.17;;;;;;;;;;4996314;28;20194;-81
2024/02/28 10:46:50;;;;;;;40.38;24.98;;;;;;;;;;4996801;28;20465;-82
2024/02/28 10:49:16;;;;;;;38.17;24.17;;;;;;;;;;5003665;28;20190;-81
2024/02/28 10:51:45;;;;;;;36.23;23.33;;;;;;;;;;5000749;28;20198;-81
2024/02/28 10:54:13;;;;;;;39.70;23.97;;;;;;;;;;4995445;28;20399;-81
2024/02/28 10:56:40;;;;;;;40.73;23.57;;;;;;;;;;4996047;28;20446;-81
2024/02/28 10:59:07;;;;;;;38.20;23.93;;;;;;;;;;4996757;28;20434;-82
2024/02/28 11:01:34;;;;;;;40.50;25.60;;;;;;;;;;4996180;28;20438;-81
2024/02/28 11:04:00;;;;;;;41.60;26.03;;;;;;;;;;4996721;28;20493;-80
2024/02/28 11:06:27;;;;;;;40.73;27.93;;;;;;;;;;4995946;28;20505;-82
2024/02/28 11:08:54;;;;;;;36.63;24.40;;;;;;;;;;4996074;28;20902;-80
2024/02/28 11:11:20;;;;;;;36.70;22.60;;;;;;;;;;4991478;28;21067;-80
2024/02/28 11:13:54;;;;;;;37.03;21.67;;;;;;;;;;4994213;28;20442;-81
2024/02/28 11:16:27;;;;;;;36.50;25.00;;;;;;;;;;4996198;28;20941;-79
2024/02/28 11:18:53;;;;;;;34.90;22.40;;;;;;;;;;4995756;28;20743;-81
2024/02/28 11:21:19;;;;;;;36.90;23.40;;;;;;;;;;4994417;28;20524;-82
2024/02/28 11:23:48;;;;;;;32.70;21.03;;;;;;;;;;4993262;28;20502;-81
2024/02/28 11:26:14;;;;;;;30.23;20.47;;;;;;;;;;4995863;28;20423;-81
2024/02/28 11:28:40;;;;;;;34.07;22.33;;;;;;;;;;4995466;28;20988;-81
2024/02/28 11:31:06;;;;;;;33.20;20.87;;;;;;;;;;4999677;28;20430;-81
2024/02/28 11:33:33;;;;;;;33.83;21.77;;;;;;;;;;4998100;28;20415;-81
2024/02/28 11:35:59;;;;;;;32.13;21.50;;;;;;;;;;4998412;28;20463;-81
2024/02/28 11:38:25;;;;;;;33.37;20.70;;;;;;;;;;4991966;28;20449;-81
2024/02/28 11:40:52;;;;;;;29.70;20.10;;;;;;;;;;4995977;28;20418;-81
2024/02/28 11:43:18;;;;;;;33.10;23.23;;;;;;;;;;5000321;28;20439;-81
2024/02/28 11:45:46;;;;;;;35.50;20.77;;;;;;;;;;4994953;28;20423;-81
2024/02/28 11:48:13;;;;;;;32.47;20.00;;;;;;;;;;4994900;28;20445;-80
2024/02/28 11:50:39;;;;;;;33.93;20.40;;;;;;;;;;4995114;28;20784;-80
2024/02/28 11:53:06;;;;;;;23.77;14.77;;;;;;;;;;4996324;28;20494;-81
2024/02/28 11:55:32;;;;;;;19.73;13.30;;;;;;;;;;4998362;28;20422;-81
2024/02/28 11:57:58;;;;;;;20.97;13.80;;;;;;;;;;4992296;28;20472;-80
2024/02/28 12:00:24;;;;;;;22.37;14.63;;;;;;;;;;5005175;28;20898;-81
2024/02/28 12:02:50;;;;;;;31.63;18.37;;;;;;;;;;4997765;28;20430;-81
2024/02/28 12:05:16;;;;;;;27.60;17.73;;;;;;;;;;4982379;28;20768;-81
2024/02/28 12:07:42;;;;;;;27.20;16.67;;;;;;;;;;4991303;28;20860;-80
2024/02/28 12:10:09;;;;;;;26.77;18.77;;;;;;;;;;4999664;28;21065;-80
2024/02/28 12:12:35;;;;;;;25.13;16.97;;;;;;;;;;4997209;28;20430;-82
2024/02/28 12:15:05;;;;;;;21.90;15.53;;;;;;;;;;4998989;28;20434;-80
2024/02/28 12:17:31;;;;;;;24.13;17.30;;;;;;;;;;4999982;28;20474;-81
2024/02/28 12:20:00;;;;;;;24.17;15.43;;;;;;;;;;4998617;28;20429;-81
2024/02/28 12:22:26;;;;;;;26.27;15.77;;;;;;;;;;4997458;28;20426;-80
2024/02/28 12:24:53;;;;;;;25.00;16.53;;;;;;;;;;4995030;28;20426;-81
2024/02/28 12:27:19;;;;;;;21.33;14.70;;;;;;;;;;5004900;28;20409;-81
2024/02/28 12:29:45;;;;;;;23.07;14.20;;;;;;;;;;5002654;28;20420;-81
2024/02/28 12:32:12;;;;;;;25.50;15.80;;;;;;;;;;4999288;28;20441;-80
2024/02/28 12:34:38;;;;;;;25.10;14.70;;;;;;;;;;5000537;28;20480;-80
2024/02/28 12:37:05;;;;;;;23.20;13.17;;;;;;;;;;4998805;28;20470;-80
2024/02/28 12:39:34;;;;;;;18.70;13.37;;;;;;;;;;5000812;28;20787;-80
2024/02/28 12:42:00;;;;;;;19.43;14.50;;;;;;;;;;4998503;28;20436;-80
2024/02/28 12:44:26;;;;;;;23.60;14.37;;;;;;;;;;5004584;28;20528;-80
2024/02/28 12:46:52;;;;;;;22.00;13.80;;;;;;;;;;5006306;28;20461;-80
2024/02/28 12:49:18;;;;;;;16.23;10.70;;;;;;;;;;4997406;28;20970;-81
2024/02/28 12:51:45;;;;;;;16.30;10.00;;;;;;;;;;4998133;28;20434;-80
2024/02/28 12:54:12;;;;;;;18.73;12.80;;;;;;;;;;5002547;28;20407;-81
2024/02/28 12:56:39;;;;;;;17.53;12.10;;;;;;;;;;4999041;28;20470;-81
2024/02/28 12:59:07;;;;;;;17.80;11.57;;;;;;;;;;4995814;28;20423;-81
2024/02/28 13:01:33;;;;;;;15.63;12.07;;;;;;;;;;5000143;28;20524;-81
2024/02/28 13:03:59;;;;;;;11.53;8.43;;;;;;;;;;4995125;28;20426;-81
2024/02/28 13:06:25;;;;;;;16.43;11.00;;;;;;;;;;4996894;28;20577;-80
2024/02/28 13:08:54;;;;;;;13.27;9.90;;;;;;;;;;4997882;28;20423;-81
2024/02/28 13:11:20;;;;;;;13.03;8.90;;;;;;;;;;4998292;28;20603;-81
2024/02/28 13:13:50;;;;;;;14.50;9.97;;;;;;;;;;4997650;28;20450;-81
2024/02/28 13:16:16;;;;;;;13.53;8.40;;;;;;;;;;4995508;28;20462;-80
2024/02/28 13:18:42;;;;;;;15.17;11.07;;;;;;;;;;5001037;28;20425;-80
2024/02/28 13:21:09;;;;;;;14.90;9.67;;;;;;;;;;4999074;28;20498;-81
2024/02/28 13:23:35;;;;;;;16.77;10.67;;;;;;;;;;4998640;28;20431;-81
2024/02/28 13:26:01;;;;;;;11.90;9.30;;;;;;;;;;4997636;28;20433;-80
2024/02/28 13:28:31;;;;;;;10.93;8.80;;;;;;;;;;4997376;28;20438;-79
2024/02/28 13:31:00;;;;;;;12.90;8.60;;;;;;;;;;4997391;28;20966;-80
2024/02/28 13:33:26;;;;;;;10.23;7.20;;;;;;;;;;4999232;28;20461;-81
2024/02/28 13:35:53;;;;;;;10.13;7.60;;;;;;;;;;4997246;28;20828;-81
2024/02/28 13:38:19;;;;;;;11.23;7.40;;;;;;;;;;4998161;28;20786;-81
2024/02/28 13:40:46;;;;;;;10.13;7.20;;;;;;;;;;4997727;28;20729;-81
2024/02/28 13:43:12;;;;;;;11.63;7.20;;;;;;;;;;5000275;28;20408;-80
2024/02/28 13:45:41;;;;;;;10.23;6.90;;;;;;;;;;4999043;28;20414;-79
2024/02/28 13:48:20;;;;;;;13.93;8.47;;;;;;;;;;4997120;28;20442;-80
2024/02/28 13:50:46;;;;;;;11.80;8.10;;;;;;;;;;4996841;28;20422;-80
2024/02/28 13:53:13;;;;;;;10.67;7.60;;;;;;;;;;4997478;28;20434;-80
2024/02/28 13:55:39;;;;;;;12.93;7.77;;;;;;;;;;5003265;28;20830;-81
2024/02/28 13:58:06;;;;;;;12.60;8.07;;;;;;;;;;4999314;28;20576;-81
2024/02/28 14:00:32;;;;;;;11.23;7.93;;;;;;;;;;4998145;28;20422;-80
2024/02/28 14:02:58;;;;;;;12.20;8.03;;;;;;;;;;4998588;28;20422;-81
2024/02/28 14:05:24;;;;;;;10.10;6.90;;;;;;;;;;4997194;28;20433;-81
2024/02/28 14:07:50;;;;;;;10.47;6.97;;;;;;;;;;4996855;28;21075;-81